Pagrindinis puslapis
METAR-TAF:

METAR-TAF

Oro uostai :

Nelson Lagoon, Aliaska, Jungtinės Amerikos Valstijos

platuma: 56-00-27N, ilguma: 161-09-37W, Aukštis: 4 m

Dabartinis oras

Ataskaita buvo paskelbta 13 minutes, ne 17:05 UTC
Vėjas 24 kt iš Šiaurės su gūsio iki 31 kt
Temperatūra -14°C
Drėgmė 78%
Slėgis 988 hPa
Matomumas: 1.2 km
Mažai debesys ne aukštis 600 ft
Su prošvaistėmis ne aukštis 1900 ft
Apsiniaukę ne aukštis 2400 ft
sniegas, rūkana

METAR: PAOU 291705Z AUTO 01024G31KT 3/4SM -SN BR FEW006 BKN019 OVC024 M14/M17 A2918 RMK AO2 PK WND 01031/1703 P0000 FZRANO

Laikas: 08:18 (17:18 UTC)


TAF: trūkstamas

Orai ataskaitas ir orų prognozės (METAR, TAF).

turimą stotys yra geltonos ir raudonos taškus žemėlapyje.

Perkelti pele per norėdami pamatyti stoties vardą.

Tada spustelėkite, norėdami matyti oro stebėjimo ir prognozės.

Norėdami pakeisti žemėlapį: spustelėkite ant žalios mygtukų su juodo kryžiaus žemyn,; žalią mygtuką su brūkšneliu, jei norite nutolinti; arba žalių rodyklių gretimoms žemėlapius.


METAR-TAF: